Weather at Nice-Côte d'Azur Airport

Public forecast

Using degrees Celsius for public forecast. Weather courtesy of forecast.io.

Current aviation weather report (METAR) for Nice-Côte d'Azur Airport

Report is more than 6 hours old.

2022/11/14 15:30 (retrieved 2 years ago)

LFMN 141530Z 10010KT 9999 SCT033 SCT100 17/10 Q1020 NOSIG

Aviation forecast (TAF) for Nice-Côte d'Azur Airport

Forecast is more than 12 hours old.

2023/02/22 15:09 (retrieved 1 year ago)

TAF TAF LFMN 221400Z 2215/2321 33010KT 9999 FEW030 TEMPO 2215/2221 18007KT PROB30 2221/2306 BKN014 TEMPO 2310/2321 14005KT